sensor_id;sensor_type;location;lat;lon;timestamp;pressure;altitude;pressure_sealevel;temperature;humidity
4012;BME280;2020;48.682;9.024;2023-08-07T00:02:20;96317.16;;;9.78;100.00
4012;BME280;2020;48.682;9.024;2023-08-07T00:04:46;96311.63;;;9.73;100.00
4012;BME280;2020;48.682;9.024;2023-08-07T00:07:11;96316.47;;;9.68;100.00
4012;BME280;2020;48.682;9.024;2023-08-07T00:09:36;96316.47;;;9.68;100.00
4012;BME280;2020;48.682;9.024;2023-08-07T00:12:02;96307.41;;;9.72;100.00
4012;BME280;2020;48.682;9.024;2023-08-07T00:14:28;96314.53;;;9.70;100.00
4012;BME280;2020;48.682;9.024;2023-08-07T00:16:53;96315.06;;;9.73;100.00
4012;BME280;2020;48.682;9.024;2023-08-07T00:19:19;96322.97;;;9.72;100.00
4012;BME280;2020;48.682;9.024;2023-08-07T00:21:44;96321.66;;;9.68;100.00
4012;BME280;2020;48.682;9.024;2023-08-07T00:24:09;96321.16;;;9.64;100.00
4012;BME280;2020;48.682;9.024;2023-08-07T00:26:34;96318.94;;;9.69;100.00
4012;BME280;2020;48.682;9.024;2023-08-07T00:29:00;96325.53;;;9.63;100.00
4012;BME280;2020;48.682;9.024;2023-08-07T00:31:25;96326.84;;;9.68;100.00
4012;BME280;2020;48.682;9.024;2023-08-07T00:33:50;96328.50;;;9.69;100.00
4012;BME280;2020;48.682;9.024;2023-08-07T00:36:19;96332.06;;;9.68;99.58
4012;BME280;2020;48.682;9.024;2023-08-07T00:38:44;96324.72;;;9.63;99.00
4012;BME280;2020;48.682;9.024;2023-08-07T00:41:10;96336.22;;;9.60;99.92
4012;BME280;2020;48.682;9.024;2023-08-07T00:43:35;96327.41;;;9.53;99.42
4012;BME280;2020;48.682;9.024;2023-08-07T00:46:01;96337.19;;;9.59;100.00
4012;BME280;2020;48.682;9.024;2023-08-07T00:48:26;96337.50;;;9.56;99.46
4012;BME280;2020;48.682;9.024;2023-08-07T00:50:53;96342.41;;;9.59;99.57
4012;BME280;2020;48.682;9.024;2023-08-07T00:53:19;96331.94;;;9.51;99.24
4012;BME280;2020;48.682;9.024;2023-08-07T00:55:45;96337.44;;;9.48;100.00
4012;BME280;2020;48.682;9.024;2023-08-07T00:58:11;96339.38;;;9.46;100.00
4012;BME280;2020;48.682;9.024;2023-08-07T01:00:37;96343.63;;;9.47;99.83
4012;BME280;2020;48.682;9.024;2023-08-07T01:03:05;96336.78;;;9.46;100.00
4012;BME280;2020;48.682;9.024;2023-08-07T01:05:31;96344.59;;;9.46;100.00
4012;BME280;2020;48.682;9.024;2023-08-07T01:07:56;96340.53;;;9.43;100.00
4012;BME280;2020;48.682;9.024;2023-08-07T01:10:27;96348.75;;;9.39;98.96
4012;BME280;2020;48.682;9.024;2023-08-07T01:16:04;96342.59;;;9.40;100.00
4012;BME280;2020;48.682;9.024;2023-08-07T01:18:34;96348.44;;;9.42;100.00
4012;BME280;2020;48.682;9.024;2023-08-07T01:21:00;96346.50;;;9.44;100.00
4012;BME280;2020;48.682;9.024;2023-08-07T01:23:25;96348.16;;;9.45;99.75
4012;BME280;2020;48.682;9.024;2023-08-07T01:25:51;96347.47;;;9.43;99.42
4012;BME280;2020;48.682;9.024;2023-08-07T01:29:09;96343.06;;;9.35;99.23
4012;BME280;2020;48.682;9.024;2023-08-07T01:31:16;96340.00;;;9.40;100.00
4012;BME280;2020;48.682;9.024;2023-08-07T01:33:57;96345.50;;;9.36;99.82
4012;BME280;2020;48.682;9.024;2023-08-07T01:36:25;96345.34;;;9.38;98.99
4012;BME280;2020;48.682;9.024;2023-08-07T01:38:52;96354.97;;;9.46;98.85
4012;BME280;2020;48.682;9.024;2023-08-07T01:41:18;96354.47;;;9.42;97.86
4012;BME280;2020;48.682;9.024;2023-08-07T01:43:44;96356.59;;;9.47;98.23
4012;BME280;2020;48.682;9.024;2023-08-07T01:46:10;96358.41;;;9.46;98.51
4012;BME280;2020;48.682;9.024;2023-08-07T01:48:36;96362.47;;;9.49;98.73
4012;BME280;2020;48.682;9.024;2023-08-07T01:51:01;96360.16;;;9.46;99.27
4012;BME280;2020;48.682;9.024;2023-08-07T01:53:26;96359.88;;;9.49;99.29
4012;BME280;2020;48.682;9.024;2023-08-07T01:55:52;96361.81;;;9.47;98.65
4012;BME280;2020;48.682;9.024;2023-08-07T01:58:17;96367.28;;;9.44;97.71
4012;BME280;2020;48.682;9.024;2023-08-07T02:00:42;96351.41;;;9.47;99.58
4012;BME280;2020;48.682;9.024;2023-08-07T02:03:07;96354.66;;;9.49;98.54
4012;BME280;2020;48.682;9.024;2023-08-07T02:05:33;96363.13;;;9.51;97.92
4012;BME280;2020;48.682;9.024;2023-08-07T02:07:58;96356.66;;;9.55;98.22
4012;BME280;2020;48.682;9.024;2023-08-07T02:10:24;96360.59;;;9.59;97.76
4012;BME280;2020;48.682;9.024;2023-08-07T02:12:49;96366.56;;;9.51;97.03
4012;BME280;2020;48.682;9.024;2023-08-07T02:15:15;96366.38;;;9.53;96.32
4012;BME280;2020;48.682;9.024;2023-08-07T02:17:40;96371.88;;;9.50;95.91
4012;BME280;2020;48.682;9.024;2023-08-07T02:20:06;96369.28;;;9.50;95.79
4012;BME280;2020;48.682;9.024;2023-08-07T02:22:32;96370.25;;;9.49;95.85
4012;BME280;2020;48.682;9.024;2023-08-07T02:24:57;96372.56;;;9.52;97.52
4012;BME280;2020;48.682;9.024;2023-08-07T02:27:22;96379.03;;;9.48;96.62
4012;BME280;2020;48.682;9.024;2023-08-07T02:29:48;96385.53;;;9.52;95.15
4012;BME280;2020;48.682;9.024;2023-08-07T02:32:13;96381.97;;;9.53;96.31
4012;BME280;2020;48.682;9.024;2023-08-07T02:34:38;96387.19;;;9.53;95.30
4012;BME280;2020;48.682;9.024;2023-08-07T02:37:03;96393.03;;;9.55;96.00
4012;BME280;2020;48.682;9.024;2023-08-07T02:39:29;96386.50;;;9.51;94.32
4012;BME280;2020;48.682;9.024;2023-08-07T02:41:54;96385.25;;;9.55;96.52
4012;BME280;2020;48.682;9.024;2023-08-07T02:44:19;96384.44;;;9.55;94.92
4012;BME280;2020;48.682;9.024;2023-08-07T02:46:45;96378.72;;;9.51;95.30
4012;BME280;2020;48.682;9.024;2023-08-07T02:49:11;96378.41;;;9.54;95.32
4012;BME280;2020;48.682;9.024;2023-08-07T02:51:37;96386.88;;;9.56;93.28
4012;BME280;2020;48.682;9.024;2023-08-07T02:54:02;96387.41;;;9.60;93.48
4012;BME280;2020;48.682;9.024;2023-08-07T02:56:27;96390.44;;;9.55;92.76
4012;BME280;2020;48.682;9.024;2023-08-07T02:58:53;96388.00;;;9.54;91.04
4012;BME280;2020;48.682;9.024;2023-08-07T03:01:19;96390.44;;;9.55;89.83
4012;BME280;2020;48.682;9.024;2023-08-07T03:03:45;96390.25;;;9.48;90.08
4012;BME280;2020;48.682;9.024;2023-08-07T03:06:10;96390.75;;;9.52;91.52
4012;BME280;2020;48.682;9.024;2023-08-07T03:08:35;96392.53;;;9.51;91.94
4012;BME280;2020;48.682;9.024;2023-08-07T03:11:00;96384.22;;;9.48;91.18
4012;BME280;2020;48.682;9.024;2023-08-07T03:13:26;96395.94;;;9.52;91.27
4012;BME280;2020;48.682;9.024;2023-08-07T03:16:05;96390.75;;;9.52;90.28
4012;BME280;2020;48.682;9.024;2023-08-07T03:18:31;96400.63;;;9.48;90.76
4012;BME280;2020;48.682;9.024;2023-08-07T03:20:57;96396.25;;;9.49;89.67
4012;BME280;2020;48.682;9.024;2023-08-07T03:23:23;96397.56;;;9.53;92.54
4012;BME280;2020;48.682;9.024;2023-08-07T03:25:49;96401.44;;;9.49;91.03
4012;BME280;2020;48.682;9.024;2023-08-07T03:28:15;96406.34;;;9.52;91.58
4012;BME280;2020;48.682;9.024;2023-08-07T03:30:40;96401.81;;;9.54;90.84
4012;BME280;2020;48.682;9.024;2023-08-07T03:33:05;96404.41;;;9.54;90.52
4012;BME280;2020;48.682;9.024;2023-08-07T03:35:32;96409.75;;;9.53;91.29
4012;BME280;2020;48.682;9.024;2023-08-07T03:37:57;96408.78;;;9.54;90.23
4012;BME280;2020;48.682;9.024;2023-08-07T03:40:22;96406.34;;;9.52;90.20
4012;BME280;2020;48.682;9.024;2023-08-07T03:42:47;96402.75;;;9.53;92.32
4012;BME280;2020;48.682;9.024;2023-08-07T03:45:13;96408.25;;;9.50;92.30
4012;BME280;2020;48.682;9.024;2023-08-07T03:47:39;96407.28;;;9.51;92.30
4012;BME280;2020;48.682;9.024;2023-08-07T03:50:04;96412.97;;;9.46;90.44
4012;BME280;2020;48.682;9.024;2023-08-07T03:52:30;96411.81;;;9.49;92.30
4012;BME280;2020;48.682;9.024;2023-08-07T03:54:55;96411.03;;;9.48;91.93
4012;BME280;2020;48.682;9.024;2023-08-07T03:57:20;96414.06;;;9.44;90.92
4012;BME280;2020;48.682;9.024;2023-08-07T03:59:46;96404.50;;;9.44;90.49
4012;BME280;2020;48.682;9.024;2023-08-07T04:02:11;96405.59;;;9.42;90.71
4012;BME280;2020;48.682;9.024;2023-08-07T04:04:36;96404.25;;;9.38;92.40
4012;BME280;2020;48.682;9.024;2023-08-07T04:07:01;96409.75;;;9.34;91.65
4012;BME280;2020;48.682;9.024;2023-08-07T04:09:27;96404.06;;;9.31;92.37
4012;BME280;2020;48.682;9.024;2023-08-07T04:11:52;96408.41;;;9.30;92.02
4012;BME280;2020;48.682;9.024;2023-08-07T04:14:17;96408.72;;;9.27;92.02
4012;BME280;2020;48.682;9.024;2023-08-07T04:16:42;96400.50;;;9.32;92.69
4012;BME280;2020;48.682;9.024;2023-08-07T04:19:08;96408.72;;;9.27;92.14
4012;BME280;2020;48.682;9.024;2023-08-07T04:21:33;96411.69;;;9.32;93.07
4012;BME280;2020;48.682;9.024;2023-08-07T04:23:59;96415.25;;;9.31;92.26
4012;BME280;2020;48.682;9.024;2023-08-07T04:26:25;96407.88;;;9.27;90.96
4012;BME280;2020;48.682;9.024;2023-08-07T04:28:51;96410.34;;;9.28;92.32
4012;BME280;2020;48.682;9.024;2023-08-07T04:31:16;96412.28;;;9.26;92.82
4012;BME280;2020;48.682;9.024;2023-08-07T04:33:41;96414.22;;;9.24;92.95
4012;BME280;2020;48.682;9.024;2023-08-07T04:36:06;96415.47;;;9.20;92.78
4012;BME280;2020;48.682;9.024;2023-08-07T04:38:32;96409.31;;;9.21;92.37
4012;BME280;2020;48.682;9.024;2023-08-07T04:40:57;96411.53;;;9.16;92.32
4012;BME280;2020;48.682;9.024;2023-08-07T04:43:22;96413.47;;;9.14;93.32
4012;BME280;2020;48.682;9.024;2023-08-07T04:45:48;96411.84;;;9.13;92.61
4012;BME280;2020;48.682;9.024;2023-08-07T04:48:14;96415.41;;;9.12;92.97
4012;BME280;2020;48.682;9.024;2023-08-07T04:50:40;96420.28;;;9.15;92.92
4012;BME280;2020;48.682;9.024;2023-08-07T04:53:06;96415.09;;;9.15;92.04
4012;BME280;2020;48.682;9.024;2023-08-07T04:55:31;96413.47;;;9.14;92.48
4012;BME280;2020;48.682;9.024;2023-08-07T04:57:57;96422.72;;;9.16;92.59
4012;BME280;2020;48.682;9.024;2023-08-07T05:00:23;96418.66;;;9.14;93.68
4012;BME280;2020;48.682;9.024;2023-08-07T05:02:48;96417.03;;;9.13;92.13
4012;BME280;2020;48.682;9.024;2023-08-07T05:05:14;96423.97;;;9.12;93.23
4012;BME280;2020;48.682;9.024;2023-08-07T05:07:46;96418.38;;;9.17;92.61
4012;BME280;2020;48.682;9.024;2023-08-07T05:10:11;96412.88;;;9.20;91.88
4012;BME280;2020;48.682;9.024;2023-08-07T05:12:37;96419.09;;;9.27;92.53
4012;BME280;2020;48.682;9.024;2023-08-07T05:15:02;96419.66;;;9.31;92.26
4012;BME280;2020;48.682;9.024;2023-08-07T05:17:27;96414.34;;;9.41;92.62
4012;BME280;2020;48.682;9.024;2023-08-07T05:19:53;96422.81;;;9.43;91.11
4012;BME280;2020;48.682;9.024;2023-08-07T05:22:18;96420.59;;;9.48;91.27
4012;BME280;2020;48.682;9.024;2023-08-07T05:24:43;96419.31;;;9.52;91.19
4012;BME280;2020;48.682;9.024;2023-08-07T05:27:10;96424.38;;;9.54;91.40
4012;BME280;2020;48.682;9.024;2023-08-07T05:29:36;96426.22;;;9.61;90.66
4012;BME280;2020;48.682;9.024;2023-08-07T05:32:11;96425.91;;;9.64;90.32
4012;BME280;2020;48.682;9.024;2023-08-07T05:34:37;96431.78;;;9.66;89.54
4012;BME280;2020;48.682;9.024;2023-08-07T05:37:02;96440.31;;;9.77;92.37
4012;BME280;2020;48.682;9.024;2023-08-07T05:39:28;96430.22;;;9.74;90.02
4012;BME280;2020;48.682;9.024;2023-08-07T05:41:53;96440.00;;;9.80;90.39
4012;BME280;2020;48.682;9.024;2023-08-07T05:44:19;96443.50;;;9.89;90.36
4012;BME280;2020;48.682;9.024;2023-08-07T05:46:45;96447.56;;;9.91;88.81
4012;BME280;2020;48.682;9.024;2023-08-07T05:49:10;96446.16;;;9.97;89.20
4012;BME280;2020;48.682;9.024;2023-08-07T05:51:35;96448.31;;;10.02;88.09
4012;BME280;2020;48.682;9.024;2023-08-07T05:54:00;96445.22;;;10.06;88.85
4012;BME280;2020;48.682;9.024;2023-08-07T05:56:26;96452.59;;;10.11;88.20
4012;BME280;2020;48.682;9.024;2023-08-07T05:58:51;96458.16;;;10.16;88.77
4012;BME280;2020;48.682;9.024;2023-08-07T06:01:16;96460.13;;;10.22;89.41
4012;BME280;2020;48.682;9.024;2023-08-07T06:03:42;96461.09;;;10.21;88.29
4012;BME280;2020;48.682;9.024;2023-08-07T06:06:08;96464.69;;;10.20;88.50
4012;BME280;2020;48.682;9.024;2023-08-07T06:08:33;96463.09;;;10.28;87.41
4012;BME280;2020;48.682;9.024;2023-08-07T06:10:59;96462.78;;;10.31;86.34
4012;BME280;2020;48.682;9.024;2023-08-07T06:13:28;96475.84;;;10.39;86.97
4012;BME280;2020;48.682;9.024;2023-08-07T06:15:53;96468.72;;;10.41;86.26
4012;BME280;2020;48.682;9.024;2023-08-07T06:18:19;96479.13;;;10.41;85.93
4012;BME280;2020;48.682;9.024;2023-08-07T06:20:44;96473.63;;;10.44;86.76
4012;BME280;2020;48.682;9.024;2023-08-07T06:23:10;96474.41;;;10.45;85.91
4012;BME280;2020;48.682;9.024;2023-08-07T06:25:35;96484.53;;;10.48;86.18
4012;BME280;2020;48.682;9.024;2023-08-07T06:28:00;96486.16;;;10.49;86.93
4012;BME280;2020;48.682;9.024;2023-08-07T06:30:25;96490.25;;;10.51;87.32
4012;BME280;2020;48.682;9.024;2023-08-07T06:32:51;96487.34;;;10.55;86.18
4012;BME280;2020;48.682;9.024;2023-08-07T06:35:16;96490.94;;;10.62;87.16
4012;BME280;2020;48.682;9.024;2023-08-07T06:37:41;96496.16;;;10.62;85.79
4012;BME280;2020;48.682;9.024;2023-08-07T06:40:07;96494.22;;;10.64;85.91
4012;BME280;2020;48.682;9.024;2023-08-07T06:42:32;96501.72;;;10.67;84.64
4012;BME280;2020;48.682;9.024;2023-08-07T06:44:57;96494.25;;;10.72;84.77
4012;BME280;2020;48.682;9.024;2023-08-07T06:47:23;96492.31;;;10.74;84.76
4012;BME280;2020;48.682;9.024;2023-08-07T06:49:48;96499.19;;;10.83;85.02
4012;BME280;2020;48.682;9.024;2023-08-07T06:52:13;96495.28;;;10.88;83.94
4012;BME280;2020;48.682;9.024;2023-08-07T06:54:38;96499.38;;;10.90;83.08
4012;BME280;2020;48.682;9.024;2023-08-07T06:57:04;96505.75;;;10.96;84.29
4012;BME280;2020;48.682;9.024;2023-08-07T06:59:30;96500.88;;;11.01;84.13
4012;BME280;2020;48.682;9.024;2023-08-07T07:01:56;96501.09;;;11.08;83.93
4012;BME280;2020;48.682;9.024;2023-08-07T07:04:21;96501.25;;;11.15;83.50
4012;BME280;2020;48.682;9.024;2023-08-07T07:06:46;96511.03;;;11.21;82.27
4012;BME280;2020;48.682;9.024;2023-08-07T07:09:11;96509.72;;;11.17;80.76
4012;BME280;2020;48.682;9.024;2023-08-07T07:11:41;96504.19;;;11.20;81.18
4012;BME280;2020;48.682;9.024;2023-08-07T07:14:06;96505.34;;;11.17;80.49
4012;BME280;2020;48.682;9.024;2023-08-07T07:16:32;96506.97;;;11.18;81.99
4012;BME280;2020;48.682;9.024;2023-08-07T07:18:57;96511.09;;;11.37;81.28
4012;BME280;2020;48.682;9.024;2023-08-07T07:21:23;96511.81;;;11.81;81.34
4012;BME280;2020;48.682;9.024;2023-08-07T07:23:48;96500.94;;;12.10;79.12
4012;BME280;2020;48.682;9.024;2023-08-07T07:26:14;96500.13;;;12.10;75.13
4012;BME280;2020;48.682;9.024;2023-08-07T07:28:39;96505.00;;;12.29;77.36
4012;BME280;2020;48.682;9.024;2023-08-07T07:31:04;96508.66;;;12.68;77.78
4012;BME280;2020;48.682;9.024;2023-08-07T07:33:30;96510.47;;;12.76;73.28
4012;BME280;2020;48.682;9.024;2023-08-07T07:35:55;96510.28;;;13.18;75.05
4012;BME280;2020;48.682;9.024;2023-08-07T07:38:21;96504.16;;;13.42;73.19
4012;BME280;2020;48.682;9.024;2023-08-07T07:40:47;96510.44;;;13.56;72.53
4012;BME280;2020;48.682;9.024;2023-08-07T07:43:12;96496.25;;;13.73;69.92
4012;BME280;2020;48.682;9.024;2023-08-07T07:45:37;96508.59;;;13.88;67.55
4012;BME280;2020;48.682;9.024;2023-08-07T07:48:03;96507.06;;;13.70;66.88
4012;BME280;2020;48.682;9.024;2023-08-07T07:50:29;96512.97;;;13.41;69.36
4012;BME280;2020;48.682;9.024;2023-08-07T07:52:54;96519.00;;;13.41;69.39
4012;BME280;2020;48.682;9.024;2023-08-07T07:55:20;96514.72;;;13.49;67.59
4012;BME280;2020;48.682;9.024;2023-08-07T07:57:45;96506.84;;;13.57;68.10
4012;BME280;2020;48.682;9.024;2023-08-07T08:00:11;96508.59;;;13.33;66.33
4012;BME280;2020;48.682;9.024;2023-08-07T08:02:38;96516.75;;;13.70;65.64
4012;BME280;2020;48.682;9.024;2023-08-07T08:05:04;96521.97;;;13.70;67.08
4012;BME280;2020;48.682;9.024;2023-08-07T08:07:29;96530.47;;;13.95;64.90
4012;BME280;2020;48.682;9.024;2023-08-07T08:09:57;96520.22;;;14.09;66.24
4012;BME280;2020;48.682;9.024;2023-08-07T08:12:22;96525.88;;;14.36;63.03
4012;BME280;2020;48.682;9.024;2023-08-07T08:14:47;96525.53;;;14.39;65.37
4012;BME280;2020;48.682;9.024;2023-08-07T08:17:13;96523.03;;;14.60;63.62
4012;BME280;2020;48.682;9.024;2023-08-07T08:19:38;96511.84;;;14.97;67.86
4012;BME280;2020;48.682;9.024;2023-08-07T08:22:04;96519.81;;;14.88;62.40
4012;BME280;2020;48.682;9.024;2023-08-07T08:24:29;96523.06;;;14.90;65.93
4012;BME280;2020;48.682;9.024;2023-08-07T08:26:56;96528.66;;;14.87;64.45
4012;BME280;2020;48.682;9.024;2023-08-07T08:29:22;96522.16;;;14.83;63.97
4012;BME280;2020;48.682;9.024;2023-08-07T08:31:47;96524.50;;;14.78;61.16
4012;BME280;2020;48.682;9.024;2023-08-07T08:34:12;96536.06;;;14.99;61.09
4012;BME280;2020;48.682;9.024;2023-08-07T08:36:37;96536.84;;;15.14;62.68
4012;BME280;2020;48.682;9.024;2023-08-07T08:39:03;96523.72;;;15.44;60.30
4012;BME280;2020;48.682;9.024;2023-08-07T08:41:28;96526.59;;;15.49;57.74
4012;BME280;2020;48.682;9.024;2023-08-07T08:43:54;96534.34;;;15.58;60.65
4012;BME280;2020;48.682;9.024;2023-08-07T08:46:20;96530.59;;;15.45;61.45
4012;BME280;2020;48.682;9.024;2023-08-07T08:48:56;96526.72;;;15.26;59.87
4012;BME280;2020;48.682;9.024;2023-08-07T08:51:24;96537.94;;;15.20;60.23
4012;BME280;2020;48.682;9.024;2023-08-07T08:53:51;96545.59;;;15.52;59.62
4012;BME280;2020;48.682;9.024;2023-08-07T08:56:17;96543.59;;;15.54;58.58
4012;BME280;2020;48.682;9.024;2023-08-07T08:58:43;96541.81;;;15.39;58.88
4012;BME280;2020;48.682;9.024;2023-08-07T09:01:08;96552.50;;;15.23;56.31
4012;BME280;2020;48.682;9.024;2023-08-07T09:03:34;96546.44;;;15.07;58.21
4012;BME280;2020;48.682;9.024;2023-08-07T09:05:59;96544.00;;;15.20;57.85
4012;BME280;2020;48.682;9.024;2023-08-07T09:08:27;96545.47;;;15.60;58.50
4012;BME280;2020;48.682;9.024;2023-08-07T09:10:55;96564.13;;;15.87;56.49
4012;BME280;2020;48.682;9.024;2023-08-07T09:13:23;96548.09;;;15.97;54.70
4012;BME280;2020;48.682;9.024;2023-08-07T09:15:50;96559.47;;;16.54;58.40
4012;BME280;2020;48.682;9.024;2023-08-07T09:18:16;96541.88;;;16.26;53.87
4012;BME280;2020;48.682;9.024;2023-08-07T09:20:42;96546.22;;;16.12;55.10
4012;BME280;2020;48.682;9.024;2023-08-07T09:23:07;96546.31;;;16.47;62.32
4012;BME280;2020;48.682;9.024;2023-08-07T09:25:34;96546.22;;;16.62;60.90
4012;BME280;2020;48.682;9.024;2023-08-07T09:28:04;96545.84;;;16.44;56.17
4012;BME280;2020;48.682;9.024;2023-08-07T09:30:30;96553.25;;;16.33;52.80
4012;BME280;2020;48.682;9.024;2023-08-07T09:32:57;96551.63;;;16.32;56.53
4012;BME280;2020;48.682;9.024;2023-08-07T09:35:23;96541.78;;;16.13;56.35
4012;BME280;2020;48.682;9.024;2023-08-07T09:37:49;96550.53;;;15.98;55.41
4012;BME280;2020;48.682;9.024;2023-08-07T09:40:14;96561.78;;;15.92;54.87
4012;BME280;2020;48.682;9.024;2023-08-07T09:42:41;96558.59;;;15.60;55.77
4012;BME280;2020;48.682;9.024;2023-08-07T09:45:26;96577.63;;;15.32;58.23
4012;BME280;2020;48.682;9.024;2023-08-07T09:50:23;96589.84;;;15.25;56.67
4012;BME280;2020;48.682;9.024;2023-08-07T09:52:49;96588.84;;;15.26;59.48
4012;BME280;2020;48.682;9.024;2023-08-07T09:55:14;96583.41;;;15.12;56.20
4012;BME280;2020;48.682;9.024;2023-08-07T09:57:42;96584.31;;;15.19;60.01
4012;BME280;2020;48.682;9.024;2023-08-07T10:00:08;96590.84;;;15.09;56.87
4012;BME280;2020;48.682;9.024;2023-08-07T10:02:37;96581.00;;;15.11;57.62
4012;BME280;2020;48.682;9.024;2023-08-07T10:05:04;96597.34;;;14.98;55.42
4012;BME280;2020;48.682;9.024;2023-08-07T10:07:30;96590.81;;;14.94;58.39
4012;BME280;2020;48.682;9.024;2023-08-07T10:09:56;96581.88;;;14.88;58.29
4012;BME280;2020;48.682;9.024;2023-08-07T10:12:23;96592.63;;;14.78;57.10
4012;BME280;2020;48.682;9.024;2023-08-07T10:14:48;96588.47;;;14.99;58.43
4012;BME280;2020;48.682;9.024;2023-08-07T10:17:14;96587.66;;;15.28;56.21
4012;BME280;2020;48.682;9.024;2023-08-07T10:19:39;96598.66;;;16.05;59.56
4012;BME280;2020;48.682;9.024;2023-08-07T10:22:05;96599.91;;;16.10;57.41
4012;BME280;2020;48.682;9.024;2023-08-07T10:24:31;96587.47;;;15.82;56.08
4012;BME280;2020;48.682;9.024;2023-08-07T10:26:57;96602.34;;;15.74;56.73
4012;BME280;2020;48.682;9.024;2023-08-07T10:29:24;96585.94;;;15.50;55.17
4012;BME280;2020;48.682;9.024;2023-08-07T10:31:52;96590.66;;;15.40;55.86
4012;BME280;2020;48.682;9.024;2023-08-07T10:34:18;96595.53;;;15.43;56.52
4012;BME280;2020;48.682;9.024;2023-08-07T10:36:44;96599.16;;;15.42;54.63
4012;BME280;2020;48.682;9.024;2023-08-07T10:39:11;96598.22;;;15.65;57.43
4012;BME280;2020;48.682;9.024;2023-08-07T10:41:46;96605.22;;;15.79;59.06
4012;BME280;2020;48.682;9.024;2023-08-07T10:44:22;96585.19;;;15.57;57.82
4012;BME280;2020;48.682;9.024;2023-08-07T10:46:55;96598.06;;;15.52;55.22
4012;BME280;2020;48.682;9.024;2023-08-07T10:49:38;96590.09;;;15.45;56.18
4012;BME280;2020;48.682;9.024;2023-08-07T10:52:13;96596.63;;;15.34;55.84
4012;BME280;2020;48.682;9.024;2023-08-07T10:54:47;96601.31;;;15.24;56.37
4012;BME280;2020;48.682;9.024;2023-08-07T10:57:14;96600.41;;;15.16;57.36
4012;BME280;2020;48.682;9.024;2023-08-07T11:00:03;96602.56;;;15.58;58.81
4012;BME280;2020;48.682;9.024;2023-08-07T11:02:36;96604.66;;;15.99;56.42
4012;BME280;2020;48.682;9.024;2023-08-07T11:05:05;96606.13;;;16.23;55.60
4012;BME280;2020;48.682;9.024;2023-08-07T11:07:30;96593.91;;;16.16;55.52
4012;BME280;2020;48.682;9.024;2023-08-07T11:09:57;96612.72;;;15.98;53.70
4012;BME280;2020;48.682;9.024;2023-08-07T11:12:27;96609.50;;;15.65;55.77
4012;BME280;2020;48.682;9.024;2023-08-07T11:14:53;96607.81;;;15.58;55.88
4012;BME280;2020;48.682;9.024;2023-08-07T11:17:24;96609.28;;;15.45;57.53
4012;BME280;2020;48.682;9.024;2023-08-07T11:19:49;96611.34;;;15.50;58.15
4012;BME280;2020;48.682;9.024;2023-08-07T11:22:15;96614.88;;;15.42;59.00
4012;BME280;2020;48.682;9.024;2023-08-07T11:24:41;96609.47;;;15.29;57.43
4012;BME280;2020;48.682;9.024;2023-08-07T11:27:07;96612.16;;;15.20;56.61
4012;BME280;2020;48.682;9.024;2023-08-07T11:29:33;96609.47;;;15.29;55.27
4012;BME280;2020;48.682;9.024;2023-08-07T11:31:58;96601.13;;;15.40;57.31
4012;BME280;2020;48.682;9.024;2023-08-07T11:34:24;96605.75;;;15.38;56.77
4012;BME280;2020;48.682;9.024;2023-08-07T11:36:50;96605.47;;;15.18;56.35
4012;BME280;2020;48.682;9.024;2023-08-07T11:39:16;96597.78;;;15.01;57.68
4012;BME280;2020;48.682;9.024;2023-08-07T11:41:42;96595.16;;;14.86;58.53
4012;BME280;2020;48.682;9.024;2023-08-07T11:44:09;96608.25;;;14.86;57.55
4012;BME280;2020;48.682;9.024;2023-08-07T11:46:35;96611.16;;;14.76;59.20
4012;BME280;2020;48.682;9.024;2023-08-07T11:49:01;96604.50;;;14.66;57.42
4012;BME280;2020;48.682;9.024;2023-08-07T11:51:29;96607.31;;;14.41;58.22
4012;BME280;2020;48.682;9.024;2023-08-07T11:53:55;96608.13;;;14.41;59.19
4012;BME280;2020;48.682;9.024;2023-08-07T11:56:23;96603.38;;;14.45;58.66
4012;BME280;2020;48.682;9.024;2023-08-07T11:58:48;96610.16;;;14.54;60.01
4012;BME280;2020;48.682;9.024;2023-08-07T12:01:15;96617.66;;;14.57;60.34
4012;BME280;2020;48.682;9.024;2023-08-07T12:03:50;96611.50;;;14.50;58.20
4012;BME280;2020;48.682;9.024;2023-08-07T12:06:15;96619.53;;;14.48;58.00
4012;BME280;2020;48.682;9.024;2023-08-07T12:08:41;96606.97;;;14.44;59.46
4012;BME280;2020;48.682;9.024;2023-08-07T12:11:09;96617.16;;;14.39;61.47
4012;BME280;2020;48.682;9.024;2023-08-07T12:13:42;96622.09;;;14.33;62.79
4012;BME280;2020;48.682;9.024;2023-08-07T12:16:08;96630.78;;;14.11;67.32
4012;BME280;2020;48.682;9.024;2023-08-07T12:18:35;96640.34;;;13.95;71.21
4012;BME280;2020;48.682;9.024;2023-08-07T12:21:04;96641.06;;;13.81;71.11
4012;BME280;2020;48.682;9.024;2023-08-07T12:23:32;96638.44;;;13.81;74.49
4012;BME280;2020;48.682;9.024;2023-08-07T12:25:58;96634.50;;;13.85;73.62
4012;BME280;2020;48.682;9.024;2023-08-07T12:28:24;96640.91;;;13.82;72.73
4012;BME280;2020;48.682;9.024;2023-08-07T12:30:50;96636.81;;;13.80;70.49
4012;BME280;2020;48.682;9.024;2023-08-07T12:33:16;96628.25;;;13.94;70.04
4012;BME280;2020;48.682;9.024;2023-08-07T12:35:41;96629.50;;;14.07;71.31
4012;BME280;2020;48.682;9.024;2023-08-07T12:38:07;96625.34;;;14.12;71.24
4012;BME280;2020;48.682;9.024;2023-08-07T12:40:33;96636.06;;;14.02;69.12
4012;BME280;2020;48.682;9.024;2023-08-07T12:43:01;96633.09;;;14.06;70.73
4012;BME280;2020;48.682;9.024;2023-08-07T12:45:26;96637.34;;;14.07;71.25
4012;BME280;2020;48.682;9.024;2023-08-07T12:47:51;96631.47;;;14.04;68.19
4012;BME280;2020;48.682;9.024;2023-08-07T12:50:17;96628.94;;;13.88;67.50
4012;BME280;2020;48.682;9.024;2023-08-07T12:52:42;96635.03;;;13.80;67.12
4012;BME280;2020;48.682;9.024;2023-08-07T12:55:08;96650.44;;;13.75;69.49
4012;BME280;2020;48.682;9.024;2023-08-07T12:57:33;96648.31;;;13.70;70.36
4012;BME280;2020;48.682;9.024;2023-08-07T12:59:58;96654.16;;;13.81;72.98
4012;BME280;2020;48.682;9.024;2023-08-07T13:02:24;96640.06;;;13.82;73.86
4012;BME280;2020;48.682;9.024;2023-08-07T13:04:49;96644.59;;;13.96;71.23
4012;BME280;2020;48.682;9.024;2023-08-07T13:07:15;96637.81;;;14.10;71.16
4012;BME280;2020;48.682;9.024;2023-08-07T13:09:41;96636.88;;;14.26;72.99
4012;BME280;2020;48.682;9.024;2023-08-07T13:12:06;96633.59;;;14.47;72.42
4012;BME280;2020;48.682;9.024;2023-08-07T13:14:32;96614.41;;;14.55;70.50
4012;BME280;2020;48.682;9.024;2023-08-07T13:16:57;96622.19;;;14.63;69.16
4012;BME280;2020;48.682;9.024;2023-08-07T13:19:22;96627.31;;;14.80;68.64
4012;BME280;2020;48.682;9.024;2023-08-07T13:21:47;96626.53;;;14.95;69.62
4012;BME280;2020;48.682;9.024;2023-08-07T13:24:13;96632.31;;;15.20;69.38
4012;BME280;2020;48.682;9.024;2023-08-07T13:26:38;96623.38;;;15.14;65.34